NK63 weather

CLOSED Mercy Hospital Heliport
Buffalo, New York, United States

Public forecast

Using degrees Fahrenheit for public forecast. Weather courtesy of forecast.io.

METAR (pilot weather report)

Closest report is Buffalo Niagara International Airport, 6.6 nm (12.3 km) NNE. Retrieved 2019/06/27 05:54 UTC (27 minutes ago):

KBUF 270554Z 21003KT 10SM SCT250 19/15 A3013 RMK AO2 SLP198 T01890150 10239 20183 51012

TAF (pilot weather forecast)

Closest forecast is Buffalo Niagara International Airport, 6.6 nm (12.3 km) NNE. Retrieved 2019/06/27 06:34 UTC (0 seconds ago):

TAF KBUF 270530Z 2706/2806 20004KT P6SM FEW250 FM271400 24009KT P6SM FEW250 FM280200 21004KT P6SM FEW250